createdAt,value
2017-04-13T00:00:07.117Z,1006.74
2017-04-13T00:00:47.639Z,1006.74
2017-04-13T00:01:28.144Z,1006.78
2017-04-13T00:02:08.692Z,1006.77
2017-04-13T00:02:49.158Z,1006.77
2017-04-13T00:03:29.639Z,1006.79
2017-04-13T00:04:10.188Z,1006.83
2017-04-13T00:04:50.687Z,1006.76
2017-04-13T00:05:31.192Z,1006.63
2017-04-13T00:06:11.689Z,1006.66
2017-04-13T00:06:52.217Z,1006.81
2017-04-13T00:07:32.705Z,1006.73
2017-04-13T00:08:13.212Z,1006.7
2017-04-13T00:08:53.684Z,1006.66
2017-04-13T00:09:34.192Z,1006.64
2017-04-13T00:10:14.728Z,1006.62
2017-04-13T00:10:55.229Z,1006.63
2017-04-13T00:11:35.719Z,1006.61
2017-04-13T00:12:16.203Z,1006.71
2017-04-13T00:12:56.685Z,1006.71
2017-04-13T00:13:37.167Z,1006.61
2017-04-13T00:14:17.698Z,1006.66
2017-04-13T00:14:58.173Z,1006.58
2017-04-13T00:15:38.687Z,1006.57
2017-04-13T00:16:19.207Z,1006.59
2017-04-13T00:16:59.629Z,1006.57
2017-04-13T00:17:40.135Z,1006.69
2017-04-13T00:18:20.601Z,1006.59
2017-04-13T00:19:01.121Z,1006.51
2017-04-13T00:19:41.852Z,1006.71
2017-04-13T00:20:22.435Z,1006.64
2017-04-13T00:21:02.972Z,1006.57
2017-04-13T00:21:43.490Z,1006.54
2017-04-13T00:22:23.991Z,1006.57
2017-04-13T00:23:04.471Z,1006.57
2017-04-13T00:23:45.010Z,1006.57
2017-04-13T00:24:25.479Z,1006.54
2017-04-13T00:25:05.983Z,1006.59
2017-04-13T00:25:46.502Z,1006.47
2017-04-13T00:26:26.975Z,1006.48
2017-04-13T00:27:07.527Z,1006.48
2017-04-13T00:27:48.021Z,1006.46
2017-04-13T00:28:28.523Z,1006.49
2017-04-13T00:29:09.035Z,1006.55
2017-04-13T00:29:49.534Z,1006.47
2017-04-13T00:30:30.034Z,1006.43
2017-04-13T00:31:10.548Z,1006.59
2017-04-13T00:31:51.002Z,1006.44
2017-04-13T00:32:31.525Z,1006.41
2017-04-13T00:33:12.032Z,1006.44
2017-04-13T00:33:52.545Z,1006.42
2017-04-13T00:34:33.048Z,1006.47
2017-04-13T00:35:13.511Z,1006.35
2017-04-13T00:35:54.036Z,1006.29
2017-04-13T00:36:34.582Z,1006.43
2017-04-13T00:37:15.078Z,1006.36
2017-04-13T00:37:55.571Z,1006.54
2017-04-13T00:38:36.066Z,1006.4
2017-04-13T00:39:16.553Z,1006.32
2017-04-13T00:39:57.058Z,1006.24
2017-04-13T00:40:37.573Z,1006.53
2017-04-13T00:41:18.118Z,1006.54
2017-04-13T00:41:58.600Z,1006.33
2017-04-13T00:42:39.103Z,1006.44
2017-04-13T00:43:19.654Z,1006.49
2017-04-13T00:44:00.133Z,1006.37
2017-04-13T00:44:40.617Z,1006.39
2017-04-13T00:45:21.137Z,1006.4
2017-04-13T00:46:01.657Z,1006.37
2017-04-13T00:46:42.138Z,1006.53
2017-04-13T00:47:25.167Z,1006.36
2017-04-13T00:48:05.685Z,1006.28
2017-04-13T00:48:46.173Z,1006.4
2017-04-13T00:49:26.650Z,1006.41
2017-04-13T00:50:07.124Z,1006.53
2017-04-13T00:50:47.641Z,1006.25
2017-04-13T00:51:28.180Z,1006.64
2017-04-13T00:52:08.693Z,1006.14
2017-04-13T00:52:49.216Z,1006.28
2017-04-13T00:53:29.707Z,1006.29
2017-04-13T00:54:10.218Z,1006.19
2017-04-13T00:54:50.679Z,1006.34
2017-04-13T00:55:31.218Z,1006.36
2017-04-13T00:56:11.695Z,1006.29
2017-04-13T00:56:52.220Z,1006.15
2017-04-13T00:57:32.713Z,1006.22
2017-04-13T00:58:13.195Z,1006.31
2017-04-13T00:58:53.675Z,1006.32
2017-04-13T00:59:34.173Z,1006.12
2017-04-13T01:00:14.719Z,1006.19
2017-04-13T01:00:55.282Z,1006.05
2017-04-13T01:01:35.839Z,1006.4
2017-04-13T01:02:16.332Z,1006.3
2017-04-13T01:02:56.864Z,1006.24
2017-04-13T01:03:37.347Z,1006.14
2017-04-13T01:04:17.852Z,1006.2
2017-04-13T01:04:58.333Z,1006.18
2017-04-13T01:05:38.871Z,1006.09
2017-04-13T01:06:19.316Z,1006.22
2017-04-13T01:06:59.824Z,1006.15
2017-04-13T01:07:40.326Z,1006.1
2017-04-13T01:08:20.803Z,1006.13
2017-04-13T01:09:01.309Z,1005.95
2017-04-13T01:09:41.906Z,1006.45
2017-04-13T01:10:22.434Z,1006.17
2017-04-13T01:11:02.913Z,1006.2
2017-04-13T01:11:43.457Z,1006.05
2017-04-13T01:12:23.966Z,1006.25
2017-04-13T01:13:04.506Z,1006.37
2017-04-13T01:13:44.954Z,1006.28
2017-04-13T01:14:25.527Z,1006.21
2017-04-13T01:15:06.030Z,1006.18
2017-04-13T01:15:46.575Z,1006.11
2017-04-13T01:16:27.061Z,1006.2
2017-04-13T01:17:07.554Z,1006.2
2017-04-13T01:17:48.045Z,1006.4
2017-04-13T01:18:28.612Z,1006.2
2017-04-13T01:19:09.089Z,1006.2
2017-04-13T01:19:49.614Z,1006.27
2017-04-13T01:20:30.140Z,1006.36
2017-04-13T01:21:10.663Z,1006.26
2017-04-13T01:21:51.158Z,1006.29
2017-04-13T01:22:31.659Z,1006.09
2017-04-13T01:23:12.200Z,1006.18
2017-04-13T01:23:52.824Z,1006.24
2017-04-13T01:24:33.309Z,1006.24
2017-04-13T01:25:13.771Z,1006.16
2017-04-13T01:25:54.385Z,1006.23
2017-04-13T01:26:34.909Z,1006.19
2017-04-13T01:27:15.420Z,1006.32
2017-04-13T01:27:55.932Z,1006.16
2017-04-13T01:28:36.459Z,1006.22
2017-04-13T01:29:16.967Z,1006.28
2017-04-13T01:29:57.475Z,1006.19
2017-04-13T01:30:37.978Z,1006.31
2017-04-13T01:31:18.486Z,1006.22
2017-04-13T01:31:59.159Z,1006.2
2017-04-13T01:32:39.712Z,1006.23
2017-04-13T01:33:20.244Z,1006.17
2017-04-13T01:34:00.807Z,1006.11
2017-04-13T01:34:41.260Z,1006.2
2017-04-13T01:35:21.757Z,1006.28
2017-04-13T01:36:02.267Z,1006.18
2017-04-13T01:36:42.755Z,1006.17
2017-04-13T01:37:23.351Z,1006.14
2017-04-13T01:38:03.863Z,1006.12
2017-04-13T01:38:44.349Z,1006.16
2017-04-13T01:51:32.883Z,1006.02
2017-04-13T01:52:22.158Z,1006.06
2017-04-13T01:53:10.261Z,1006.11
2017-04-13T01:53:59.548Z,1005.96
2017-04-13T01:54:46.454Z,1006.05
2017-04-13T01:55:27.447Z,1006.06
2017-04-13T01:56:07.964Z,1006.27
2017-04-13T01:56:48.501Z,1006.15
2017-04-13T01:57:29.022Z,1006.12
2017-04-13T01:58:09.513Z,1006.03
2017-04-13T01:58:49.947Z,1006.08
2017-04-13T01:59:30.495Z,1006.14
2017-04-13T02:00:10.908Z,1006.05
2017-04-13T02:00:51.363Z,1006.07
2017-04-13T02:01:31.887Z,1005.99
2017-04-13T02:02:12.372Z,1006.09
2017-04-13T02:02:52.804Z,1006.09
2017-04-13T02:03:33.303Z,1006.02
2017-04-13T02:04:13.849Z,1006.13
2017-04-13T02:04:54.319Z,1006.13
2017-04-13T02:05:34.865Z,1006.13
2017-04-13T02:06:15.316Z,1006.14
2017-04-13T02:06:55.828Z,1006.27
2017-04-13T02:07:36.305Z,1006.19
2017-04-13T02:08:16.768Z,1006.18
2017-04-13T02:08:57.271Z,1006.08
2017-04-13T02:09:37.767Z,1006.15
2017-04-13T02:10:18.228Z,1006.14
2017-04-13T02:10:58.713Z,1006.23
2017-04-13T02:11:39.199Z,1006.3
2017-04-13T02:12:19.611Z,1006.17
2017-04-13T02:13:00.144Z,1006.05
2017-04-13T02:13:40.709Z,1006.14
2017-04-13T02:14:21.195Z,1006.11
2017-04-13T02:15:01.660Z,1006.05
2017-04-13T02:15:42.196Z,1006.06
2017-04-13T02:16:22.605Z,1006.03
2017-04-13T02:17:03.109Z,1006.03
2017-04-13T02:17:43.565Z,1006.05
2017-04-13T02:18:24.073Z,1006.03
2017-04-13T02:19:04.665Z,1006.03
2017-04-13T02:19:45.167Z,1006.05
2017-04-13T02:20:25.622Z,1005.97
2017-04-13T02:21:06.123Z,1006.17
2017-04-13T02:21:46.613Z,1006.03
2017-04-13T02:22:27.087Z,1006.16
2017-04-13T02:23:07.550Z,1006.05
2017-04-13T02:23:48.062Z,1005.97
2017-04-13T02:24:28.554Z,1006.01
2017-04-13T02:25:08.990Z,1005.94
2017-04-13T02:25:49.481Z,1006.06
2017-04-13T02:26:29.931Z,1006.07
2017-04-13T02:27:10.483Z,1005.96
2017-04-13T02:27:50.946Z,1005.94
2017-04-13T02:28:31.417Z,1006.01
2017-04-13T02:29:11.890Z,1006.08
2017-04-13T02:29:52.369Z,1006.21
2017-04-13T02:30:32.833Z,1005.95
2017-04-13T02:31:13.346Z,1005.98
2017-04-13T02:31:53.824Z,1006.12
2017-04-13T02:32:34.327Z,1006.05
2017-04-13T02:33:14.846Z,1006.08
2017-04-13T02:33:55.278Z,1005.98
2017-04-13T02:34:35.763Z,1006.01
2017-04-13T02:35:16.235Z,1006.03
2017-04-13T02:35:56.709Z,1006.03
2017-04-13T02:36:37.236Z,1006.07
2017-04-13T02:37:17.700Z,1006
2017-04-13T02:37:58.220Z,1005.99
2017-04-13T02:38:38.725Z,1006.15
2017-04-13T02:39:19.223Z,1005.95
2017-04-13T02:39:59.714Z,1005.99
2017-04-13T02:40:40.164Z,1006.01
2017-04-13T02:41:20.631Z,1006.08
2017-04-13T02:42:01.171Z,1006.03
2017-04-13T02:42:41.618Z,1006.03
2017-04-13T02:43:22.129Z,1005.97
2017-04-13T02:44:02.598Z,1006.05
2017-04-13T02:44:43.055Z,1006.09
2017-04-13T02:45:23.565Z,1005.96
2017-04-13T02:46:04.040Z,1006.05
2017-04-13T02:46:44.563Z,1006
2017-04-13T02:47:25.040Z,1005.98
2017-04-13T02:48:05.493Z,1006.02
2017-04-13T02:48:46.034Z,1006
2017-04-13T02:49:26.456Z,1006.12
2017-04-13T02:50:06.976Z,1005.84
2017-04-13T02:50:47.490Z,1005.91
2017-04-13T02:51:27.949Z,1005.94
2017-04-13T02:52:08.450Z,1005.94
2017-04-13T02:52:48.937Z,1006
2017-04-13T02:53:29.425Z,1005.94
2017-04-13T02:54:09.875Z,1005.83
2017-04-13T02:54:50.376Z,1005.84
2017-04-13T02:55:30.825Z,1005.93
2017-04-13T02:56:11.301Z,1005.92
2017-04-13T02:56:51.797Z,1005.88
2017-04-13T02:57:32.302Z,1005.93
2017-04-13T02:58:12.796Z,1005.98
2017-04-13T02:58:53.281Z,1005.88
2017-04-13T02:59:33.747Z,1005.9
2017-04-13T03:00:14.203Z,1005.92
2017-04-13T03:00:54.721Z,1006.04
2017-04-13T03:01:35.170Z,1005.87
2017-04-13T03:02:15.618Z,1006.09
2017-04-13T03:02:56.105Z,1006.02
2017-04-13T03:03:36.594Z,1005.83
2017-04-13T03:04:17.080Z,1006.06
2017-04-13T03:04:57.570Z,1005.88
2017-04-13T03:05:38.040Z,1005.95
2017-04-13T03:06:18.526Z,1005.9
2017-04-13T03:06:58.972Z,1005.99
2017-04-13T03:07:39.529Z,1005.84
2017-04-13T03:08:20.046Z,1005.88
2017-04-13T03:09:00.563Z,1005.98
2017-04-13T03:09:41.007Z,1006.08
2017-04-13T03:10:21.527Z,1006.01
2017-04-13T03:11:01.963Z,1006.01
2017-04-13T03:11:42.468Z,1005.84
2017-04-13T03:12:22.952Z,1005.92
2017-04-13T03:13:03.455Z,1005.75
2017-04-13T03:13:43.930Z,1005.82
2017-04-13T03:14:24.432Z,1005.84
2017-04-13T03:15:04.949Z,1005.83
2017-04-13T03:15:45.443Z,1005.78
2017-04-13T03:16:25.904Z,1005.73
2017-04-13T03:17:06.432Z,1005.87
2017-04-13T03:17:46.937Z,1005.82
2017-04-13T03:18:27.413Z,1005.98
2017-04-13T03:19:07.916Z,1005.82
2017-04-13T03:19:48.394Z,1005.84
2017-04-13T03:20:28.976Z,1005.94
2017-04-13T03:21:09.491Z,1005.85
2017-04-13T03:21:50.018Z,1005.88
2017-04-13T03:22:30.487Z,1005.75
2017-04-13T03:23:11.000Z,1005.89
2017-04-13T03:23:51.444Z,1005.79
2017-04-13T03:24:31.946Z,1005.89
2017-04-13T03:25:12.409Z,1006.02
2017-04-13T03:25:52.885Z,1005.89
2017-04-13T03:26:33.388Z,1005.79
2017-04-13T03:27:13.918Z,1005.84
2017-04-13T03:27:54.382Z,1005.99
2017-04-13T03:28:34.848Z,1005.88
2017-04-13T03:29:15.310Z,1005.87
2017-04-13T03:29:55.815Z,1006.04
2017-04-13T03:30:36.342Z,1005.78
2017-04-13T03:31:16.774Z,1005.9
2017-04-13T03:31:57.293Z,1005.99
2017-04-13T03:32:37.785Z,1005.9
2017-04-13T03:33:18.272Z,1005.87
2017-04-13T03:33:58.801Z,1005.94
2017-04-13T03:34:39.307Z,1005.93
2017-04-13T03:35:19.749Z,1005.77
2017-04-13T03:36:00.216Z,1005.85
2017-04-13T03:36:40.721Z,1005.85
2017-04-13T03:37:21.150Z,1005.95
2017-04-13T03:38:01.673Z,1005.9
2017-04-13T03:38:42.137Z,1005.85
2017-04-13T03:39:22.659Z,1005.87
2017-04-13T03:40:03.105Z,1005.84
2017-04-13T03:40:43.575Z,1005.97
2017-04-13T03:41:24.188Z,1005.94
2017-04-13T03:42:04.709Z,1005.78
2017-04-13T03:42:45.297Z,1005.84
2017-04-13T03:43:25.736Z,1005.89
2017-04-13T03:44:06.305Z,1005.86
2017-04-13T03:44:46.766Z,1005.93
2017-04-13T03:45:27.266Z,1005.93
2017-04-13T03:46:07.721Z,1006.03
2017-04-13T03:46:48.241Z,1006.03
2017-04-13T03:47:28.711Z,1005.96
2017-04-13T03:48:09.189Z,1005.88
2017-04-13T03:48:49.741Z,1005.93
2017-04-13T03:49:30.195Z,1006.02
2017-04-13T03:50:10.717Z,1006.12
2017-04-13T03:50:51.219Z,1006.04
2017-04-13T03:51:31.717Z,1005.93
2017-04-13T03:52:12.191Z,1005.93
2017-04-13T03:52:52.649Z,1005.98
2017-04-13T03:53:33.179Z,1005.93
2017-04-13T03:54:13.657Z,1005.97
2017-04-13T03:54:54.140Z,1006.13
2017-04-13T03:55:34.705Z,1005.83
2017-04-13T03:56:15.192Z,1006.05
2017-04-13T03:56:55.712Z,1006.11
2017-04-13T03:57:36.155Z,1005.98
2017-04-13T03:58:16.677Z,1006.12
2017-04-13T03:58:57.168Z,1005.98
2017-04-13T03:59:37.657Z,1006.05
2017-04-13T04:00:18.150Z,1006.32
2017-04-13T04:00:58.613Z,1006.19
2017-04-13T04:01:39.142Z,1006.09
2017-04-13T04:02:19.696Z,1006.01
2017-04-13T04:03:00.118Z,1005.95
2017-04-13T04:03:40.687Z,1006.22
2017-04-13T04:04:21.180Z,1006.14
2017-04-13T04:05:01.679Z,1006.17
2017-04-13T04:05:42.192Z,1005.98
2017-04-13T04:06:22.684Z,1006.08
2017-04-13T04:07:03.191Z,1006.02
2017-04-13T04:07:43.730Z,1005.93
2017-04-13T04:08:24.244Z,1006.14
2017-04-13T04:09:04.766Z,1005.9
2017-04-13T04:09:45.317Z,1006.17
2017-04-13T04:10:25.821Z,1005.99
2017-04-13T04:11:06.383Z,1006.16
2017-04-13T04:11:46.857Z,1006.15
2017-04-13T04:12:27.355Z,1006.24
2017-04-13T04:13:07.830Z,1006.15
2017-04-13T04:13:48.326Z,1006.06
2017-04-13T04:14:28.832Z,1006.19
2017-04-13T04:15:09.341Z,1006.14
2017-04-13T04:15:49.845Z,1006.03
2017-04-13T04:16:30.348Z,1006.13
2017-04-13T04:17:10.863Z,1006.27
2017-04-13T04:17:51.345Z,1006.18
2017-04-13T04:18:31.842Z,1006.28
2017-04-13T04:19:12.340Z,1006.26
2017-04-13T04:19:52.879Z,1006.25
2017-04-13T04:20:33.370Z,1006.31
2017-04-13T04:21:13.926Z,1006.28
2017-04-13T04:21:54.381Z,1006.67
2017-04-13T04:22:34.946Z,1006.16
2017-04-13T04:23:15.470Z,1006.37
2017-04-13T04:23:55.992Z,1006.36
2017-04-13T04:24:36.490Z,1006.2
2017-04-13T04:25:16.999Z,1006.35
2017-04-13T04:25:57.549Z,1006.26
2017-04-13T04:26:38.023Z,1006.29
2017-04-13T04:27:18.553Z,1006.31
2017-04-13T04:27:59.073Z,1006.26
2017-04-13T04:28:39.573Z,1006.42
2017-04-13T04:29:20.122Z,1006.21
2017-04-13T04:30:00.690Z,1006.32
2017-04-13T04:30:41.203Z,1006.26
2017-04-13T04:31:21.742Z,1006.31
2017-04-13T04:32:02.362Z,1006.3
2017-04-13T04:32:42.877Z,1006.38
2017-04-13T04:33:23.384Z,1006.31
2017-04-13T04:34:03.945Z,1006.41
2017-04-13T04:34:44.419Z,1006.23
2017-04-13T04:35:24.988Z,1006.19
2017-04-13T04:36:05.508Z,1006.21
2017-04-13T04:36:45.992Z,1006.33
2017-04-13T04:37:26.525Z,1006.17
2017-04-13T04:38:07.009Z,1006.21
2017-04-13T04:38:47.605Z,1006.11
2017-04-13T04:39:28.078Z,1006.23
2017-04-13T04:40:08.620Z,1006.26
2017-04-13T04:40:49.185Z,1006.16
2017-04-13T04:41:29.672Z,1006.2
2017-04-13T04:42:10.282Z,1006.3
2017-04-13T04:42:50.726Z,1006.16
2017-04-13T04:43:31.281Z,1006.25
2017-04-13T04:44:11.810Z,1006.21
2017-04-13T04:44:52.319Z,1006.12
2017-04-13T04:45:32.897Z,1006.11
2017-04-13T04:46:13.375Z,1006.16
2017-04-13T04:46:53.897Z,1006.31
2017-04-13T04:47:34.478Z,1006.22
2017-04-13T04:48:15.032Z,1006.21
2017-04-13T04:48:55.563Z,1006.27
2017-04-13T04:49:36.060Z,1006.22
2017-04-13T04:50:16.581Z,1006.14
2017-04-13T04:50:57.094Z,1006.38
2017-04-13T04:51:37.654Z,1006.27
2017-04-13T04:52:18.183Z,1006.16
2017-04-13T04:52:58.682Z,1006.3
2017-04-13T04:53:39.148Z,1006.27
2017-04-13T04:54:19.693Z,1006.32
2017-04-13T04:55:00.233Z,1006.27
2017-04-13T04:55:40.749Z,1006.37
2017-04-13T04:56:21.292Z,1006.17
2017-04-13T04:57:01.774Z,1006.26
2017-04-13T04:57:42.295Z,1006.37
2017-04-13T04:58:22.836Z,1006.36
2017-04-13T04:59:03.372Z,1006.18
2017-04-13T04:59:43.904Z,1006.4
2017-04-13T05:00:24.387Z,1006.23
2017-04-13T05:01:04.986Z,1006.33
2017-04-13T05:01:45.503Z,1006.41
2017-04-13T05:02:26.027Z,1006.3
2017-04-13T05:03:06.563Z,1006.27
2017-04-13T05:03:47.064Z,1006.2
2017-04-13T05:04:27.587Z,1006.24
2017-04-13T05:05:08.116Z,1006.41
2017-04-13T05:05:48.624Z,1006.41
2017-04-13T05:06:29.152Z,1006.3
2017-04-13T05:23:03.843Z,1006.48
2017-04-13T05:23:52.670Z,1006.53
2017-04-13T05:24:41.604Z,1006.56
2017-04-13T05:25:29.774Z,1006.48
2017-04-13T05:26:18.906Z,1006.56
2017-04-13T05:27:07.322Z,1006.57
2017-04-13T05:27:55.836Z,1006.6
2017-04-13T05:28:44.630Z,1006.63
2017-04-13T05:29:33.573Z,1006.58
2017-04-13T05:30:22.092Z,1006.55
2017-04-13T05:31:10.577Z,1006.65
2017-04-13T05:31:59.472Z,1006.52
2017-04-13T05:32:48.059Z,1006.59
2017-04-13T05:33:37.115Z,1006.81
2017-04-13T05:34:25.738Z,1006.59
2017-04-13T05:35:14.084Z,1006.52
2017-04-13T05:36:02.631Z,1006.62
2017-04-13T05:36:51.668Z,1006.69
2017-04-13T05:37:39.856Z,1006.58
2017-04-13T05:38:28.902Z,1006.55
2017-04-13T05:39:17.570Z,1006.61
2017-04-13T05:40:06.588Z,1006.58
2017-04-13T05:40:54.798Z,1006.65
2017-04-13T05:41:43.263Z,1006.63
2017-04-13T05:42:32.579Z,1006.59
2017-04-13T05:43:21.547Z,1006.6
2017-04-13T05:44:10.154Z,1006.54
2017-04-13T05:44:59.220Z,1006.56
2017-04-13T05:45:47.302Z,1006.79
2017-04-13T05:46:36.538Z,1006.66
2017-04-13T05:47:25.129Z,1006.66
2017-04-13T05:48:09.359Z,1006.65
2017-04-13T05:48:49.862Z,1006.76
2017-04-13T05:49:30.228Z,1006.64
2017-04-13T05:50:10.731Z,1006.75
2017-04-13T05:50:51.230Z,1006.65
2017-04-13T05:51:31.670Z,1007.06
2017-04-13T05:52:12.182Z,1006.8
2017-04-13T05:52:52.692Z,1006.67
2017-04-13T05:53:33.177Z,1006.92
2017-04-13T05:54:13.646Z,1006.69
2017-04-13T05:54:54.142Z,1006.73
2017-04-13T05:55:34.602Z,1006.99
2017-04-13T05:56:15.148Z,1006.77
2017-04-13T05:56:55.660Z,1006.79
2017-04-13T05:57:36.185Z,1006.75
2017-04-13T05:58:16.686Z,1006.86
2017-04-13T05:58:57.219Z,1006.87
2017-04-13T05:59:37.710Z,1006.86
2017-04-13T06:00:18.154Z,1006.91
2017-04-13T06:00:58.664Z,1006.95
2017-04-13T06:01:39.190Z,1006.98
2017-04-13T06:02:19.649Z,1006.96
2017-04-13T06:03:00.127Z,1006.79
2017-04-13T06:03:40.638Z,1007.09
2017-04-13T06:04:21.133Z,1006.76
2017-04-13T06:05:01.609Z,1006.77
2017-04-13T06:05:42.149Z,1006.92
2017-04-13T06:06:22.698Z,1006.81
2017-04-13T06:07:03.201Z,1006.84
2017-04-13T06:07:43.664Z,1006.95
2017-04-13T06:08:24.174Z,1006.9
2017-04-13T06:09:05.492Z,1006.83
2017-04-13T06:09:45.992Z,1006.84
2017-04-13T06:10:26.522Z,1006.83
2017-04-13T06:11:07.013Z,1007.14
2017-04-13T06:11:47.549Z,1006.96
2017-04-13T06:12:28.053Z,1006.95
2017-04-13T06:13:08.543Z,1006.86
2017-04-13T06:13:49.007Z,1006.81
2017-04-13T06:14:29.494Z,1006.79
2017-04-13T06:15:09.988Z,1006.87
2017-04-13T06:15:50.505Z,1007.01
2017-04-13T06:16:31.017Z,1006.95
2017-04-13T06:17:11.527Z,1006.82
2017-04-13T06:17:51.995Z,1006.86
2017-04-13T06:18:32.486Z,1006.9
2017-04-13T06:19:12.978Z,1006.9
2017-04-13T06:19:53.443Z,1007.05
2017-04-13T06:20:33.986Z,1007.02
2017-04-13T06:21:14.500Z,1006.93
2017-04-13T06:21:54.949Z,1006.96
2017-04-13T06:22:35.453Z,1006.87
2017-04-13T06:23:15.999Z,1007.03
2017-04-13T06:23:56.470Z,1007.03
2017-04-13T06:24:37.006Z,1006.91
2017-04-13T06:25:17.590Z,1007.1
2017-04-13T06:25:58.076Z,1007.1
2017-04-13T06:26:38.620Z,1006.99
2017-04-13T06:27:19.061Z,1007.01
2017-04-13T06:27:59.600Z,1007.17
2017-04-13T06:28:40.144Z,1007.18
2017-04-13T06:29:20.696Z,1007.04
2017-04-13T06:30:01.153Z,1007.12
2017-04-13T06:30:41.672Z,1007.15
2017-04-13T06:31:22.192Z,1007.15
2017-04-13T06:32:02.754Z,1007.12
2017-04-13T06:32:43.280Z,1007.04
2017-04-13T06:33:23.787Z,1007.2
2017-04-13T06:34:04.298Z,1007.04
2017-04-13T06:34:44.803Z,1007.11
2017-04-13T06:35:25.306Z,1007.08
2017-04-13T06:36:05.898Z,1007.28
2017-04-13T06:36:46.424Z,1006.96
2017-04-13T06:37:27.084Z,1007.17
2017-04-13T06:38:07.489Z,1007.07
2017-04-13T06:38:48.027Z,1007.25
2017-04-13T06:39:28.548Z,1007.06
2017-04-13T06:40:09.044Z,1007.19
2017-04-13T06:40:49.614Z,1007.16
2017-04-13T06:41:30.136Z,1007
2017-04-13T06:42:10.684Z,1007.09
2017-04-13T06:42:51.142Z,1007.29
2017-04-13T06:43:31.704Z,1007.2
2017-04-13T06:44:12.182Z,1007.27
2017-04-13T06:44:52.719Z,1007.51
2017-04-13T06:45:33.245Z,1007.23
2017-04-13T06:46:13.778Z,1007.06
2017-04-13T06:46:54.276Z,1007.22
2017-04-13T06:47:34.866Z,1007.33
2017-04-13T06:48:15.346Z,1007.59
2017-04-13T06:48:56.343Z,1007.23
2017-04-13T06:49:36.870Z,1007.22
2017-04-13T06:50:17.389Z,1007.2
2017-04-13T06:50:57.947Z,1007.3
2017-04-13T06:51:38.403Z,1007.26
2017-04-13T06:52:18.945Z,1007.19
2017-04-13T06:52:59.480Z,1007.22
2017-04-13T06:53:40.013Z,1007.36
2017-04-13T06:54:20.559Z,1007.27
2017-04-13T06:55:01.052Z,1007.26
2017-04-13T06:55:41.593Z,1007.39
2017-04-13T06:56:22.113Z,1007.36
2017-04-13T06:57:02.658Z,1007.28
2017-04-13T06:57:43.199Z,1007.34
2017-04-13T06:58:23.726Z,1007.32
2017-04-13T06:59:04.224Z,1007.32
2017-04-13T06:59:44.748Z,1007.22
2017-04-13T07:00:25.286Z,1007.62
2017-04-13T07:01:05.787Z,1007.39
2017-04-13T07:01:46.337Z,1007.58
2017-04-13T07:02:30.446Z,1007.35
2017-04-13T07:03:13.442Z,1007.36
2017-04-13T07:03:56.597Z,1007.47
2017-04-13T07:04:37.126Z,1007.54
2017-04-13T07:05:17.695Z,1007.66
2017-04-13T07:06:00.694Z,1007.55
2017-04-13T07:06:42.696Z,1007.37
2017-04-13T07:07:26.102Z,1007.37
2017-04-13T07:08:06.645Z,1007.44
2017-04-13T07:08:47.123Z,1007.47
2017-04-13T07:09:27.631Z,1007.36
2017-04-13T07:10:08.114Z,1007.35
2017-04-13T07:10:48.628Z,1007.52
2017-04-13T07:11:29.112Z,1007.55
2017-04-13T07:12:09.688Z,1007.52
2017-04-13T07:12:50.207Z,1007.41
2017-04-13T07:13:30.754Z,1007.45
2017-04-13T07:14:11.216Z,1007.5
2017-04-13T07:14:51.727Z,1007.68
2017-04-13T07:15:32.243Z,1007.57
2017-04-13T07:16:13.351Z,1007.51
2017-04-13T07:16:53.872Z,1007.59
2017-04-13T07:17:34.411Z,1007.49
2017-04-13T07:18:14.938Z,1007.51
2017-04-13T07:18:57.362Z,1007.69
2017-04-13T07:19:37.884Z,1007.5
2017-04-13T07:20:18.418Z,1007.45
2017-04-13T07:20:58.882Z,1007.53
2017-04-13T07:21:39.432Z,1007.62
2017-04-13T07:22:19.962Z,1007.84
2017-04-13T07:23:00.470Z,1007.56
2017-04-13T07:26:30.523Z,1007.74
2017-04-13T07:27:10.923Z,1007.63
2017-04-13T07:27:53.055Z,1007.76
2017-04-13T07:28:33.522Z,1007.81
2017-04-13T07:29:13.972Z,1007.73
2017-04-13T07:29:54.460Z,1007.7
2017-04-13T07:30:34.903Z,1007.82
2017-04-13T07:31:15.381Z,1007.58
2017-04-13T07:31:55.861Z,1007.59
2017-04-13T07:32:36.393Z,1007.44
2017-04-13T07:33:16.874Z,1007.54
2017-04-13T07:33:57.396Z,1007.65
2017-04-13T07:34:37.888Z,1007.56
2017-04-13T07:35:19.046Z,1007.62
2017-04-13T07:35:59.554Z,1007.4
2017-04-13T07:36:40.036Z,1007.67
2017-04-13T07:37:20.530Z,1007.72
2017-04-13T07:38:01.102Z,1007.72
2017-04-13T07:38:41.562Z,1007.72
2017-04-13T07:39:22.051Z,1007.64
2017-04-13T07:40:02.528Z,1007.74
2017-04-13T07:40:43.009Z,1007.58
2017-04-13T07:41:23.490Z,1007.65
2017-04-13T07:42:03.954Z,1007.67
2017-04-13T07:42:44.434Z,1007.8
2017-04-13T07:43:24.938Z,1007.83
2017-04-13T07:44:05.383Z,1007.75
2017-04-13T07:44:45.820Z,1007.59
2017-04-13T07:45:26.389Z,1007.67
2017-04-13T07:46:06.904Z,1007.73
2017-04-13T07:46:47.473Z,1008.03
2017-04-13T07:47:27.957Z,1007.81
2017-04-13T07:48:08.439Z,1007.81
2017-04-13T07:48:48.895Z,1007.98
2017-04-13T07:49:29.723Z,1007.87
2017-04-13T07:50:10.248Z,1007.88
2017-04-13T07:50:50.760Z,1007.74
2017-04-13T07:51:31.263Z,1007.94
2017-04-13T07:52:11.816Z,1007.97
2017-04-13T07:52:53.109Z,1007.82
2017-04-13T07:53:33.699Z,1007.8
2017-04-13T07:54:14.196Z,1007.83
2017-04-13T07:54:54.672Z,1007.83
2017-04-13T07:55:35.212Z,1007.9
2017-04-13T07:56:15.780Z,1007.81
2017-04-13T07:56:56.322Z,1007.84
2017-04-13T07:57:36.799Z,1007.79
2017-04-13T07:58:18.298Z,1007.98
2017-04-13T07:58:58.775Z,1007.89
2017-04-13T07:59:39.308Z,1007.85
2017-04-13T08:00:19.807Z,1007.86
2017-04-13T08:01:00.315Z,1008
2017-04-13T08:01:40.811Z,1007.86
2017-04-13T08:02:21.480Z,1007.84
2017-04-13T08:03:01.984Z,1007.79
2017-04-13T08:03:43.384Z,1008.18
2017-04-13T08:04:24.039Z,1007.85
2017-04-13T08:05:04.541Z,1007.77
2017-04-13T08:05:45.151Z,1007.89
2017-04-13T08:06:25.586Z,1008.2
2017-04-13T08:07:06.221Z,1007.97
2017-04-13T08:07:46.698Z,1008.01
2017-04-13T08:08:27.440Z,1008.06
2017-04-13T08:09:09.635Z,1008.01
2017-04-13T08:09:50.066Z,1007.9
2017-04-13T08:10:30.765Z,1007.97
2017-04-13T08:11:11.457Z,1007.94
2017-04-13T08:11:57.315Z,1008.01
2017-04-13T08:12:39.703Z,1007.87
2017-04-13T08:13:23.066Z,1008
2017-04-13T08:14:04.077Z,1008.15
2017-04-13T08:14:46.752Z,1008.03
2017-04-13T08:15:28.742Z,1007.86
2017-04-13T08:16:10.768Z,1007.95
2017-04-13T08:16:53.321Z,1007.82
2017-04-13T08:17:37.939Z,1008.15
2017-04-13T08:18:23.759Z,1007.92
2017-04-13T08:19:11.028Z,1007.84
2017-04-13T08:19:52.928Z,1007.86
2017-04-13T08:20:33.411Z,1007.98
2017-04-13T08:21:13.925Z,1008.02
2017-04-13T08:21:54.405Z,1008.08
2017-04-13T08:22:36.201Z,1007.93
2017-04-13T08:23:20.897Z,1007.98
2017-04-13T08:24:04.486Z,1008.21
2017-04-13T08:24:45.009Z,1008.32
2017-04-13T08:25:25.523Z,1008.6
2017-04-13T08:26:06.252Z,1008.3
2017-04-13T08:26:46.789Z,1008.22
2017-04-13T08:27:27.365Z,1008.13
2017-04-13T08:28:07.875Z,1008.21
2017-04-13T08:28:48.692Z,1008.14
2017-04-13T08:29:29.256Z,1008.11
2017-04-13T08:30:10.218Z,1008.23
2017-04-13T08:30:52.256Z,1008.2
2017-04-13T08:31:34.818Z,1008.24
2017-04-13T08:32:15.293Z,1008.16
2017-04-13T08:32:55.906Z,1008.39
2017-04-13T08:33:36.355Z,1008.24
2017-04-13T08:34:16.817Z,1008.31
2017-04-13T08:34:57.476Z,1008.29
2017-04-13T08:35:38.969Z,1008.2
2017-04-13T08:36:18.805Z,1008.22
2017-04-13T08:37:00.787Z,1008.26
2017-04-13T08:37:41.466Z,1008.24
2017-04-13T08:38:22.068Z,1008.27
2017-04-13T08:39:06.450Z,1008.48
2017-04-13T08:39:46.615Z,1008.41
2017-04-13T08:40:27.121Z,1008.48
2017-04-13T08:41:09.784Z,1008.2
2017-04-13T08:41:52.650Z,1008.35
2017-04-13T08:42:37.436Z,1008.38
2017-04-13T08:43:29.336Z,1008.45
2017-04-13T08:44:08.316Z,1008.32
2017-04-13T08:44:51.605Z,1008.25
2017-04-13T08:45:32.085Z,1008.43
2017-04-13T08:46:12.656Z,1008.2
2017-04-13T08:46:53.200Z,1008.33
2017-04-13T08:47:33.668Z,1008.42
2017-04-13T08:48:17.509Z,1008.44
2017-04-13T08:48:58.054Z,1008.53